• Join FlightAware (Why Join?)
  • Login
  • US Flag 
12:22AM EDT


 

Airport Tracker/Info


-or-


 

Live Flight TrackerFlight Track Log ✈ DAL3970 ✈ 26-Apr-2013 ✈ KCWA - KDTW

Flight Track Log - Related Links

Times and Time Zones

All times are in EDT time to prevent confusion due to time zone crossing. See the DAL3970 flight status page for this flight to view local times or setup timezone preferences in your user account.

Time Position Orientation Groundspeed Altitude Reporting Facility
EDT Latitude Longitude Course Direction KTS MPH feet Rate Location/Type
07:49AM 44.7411 -89.6397 101° East 173 199 3,000  Level Minneapolis Center
07:50AM 44.7228 -89.5553 107° East 228 262 4,900 1,860 Climbing Minneapolis Center
07:51AM 44.7123 -89.2514 107° East  Level FlightAware Approximate
07:51AM 44.6956 -89.4453 109° East 294 338 6,900  Level Minneapolis Center
07:52AM 44.6833 -89.1157 90° East  Level FlightAware Approximate
07:52AM 44.6842 -89.3178 97° East 316 364 9,500  Level Minneapolis Center
07:53AM 44.6733 -88.9765 109° East  Level FlightAware Approximate
07:53AM 44.6703 -89.1933 99° East 337 388 11,000  Level Minneapolis Center
07:54AM 44.6440 -88.8414 101° East  Level FlightAware Approximate
07:54AM 44.6558 -89.0667 99° East 368 423 12,500  Level Minneapolis Center
07:55AM 44.6372 -88.9114 100° East 369 425 14,400 1,560 Climbing Minneapolis Center
07:56AM 44.6208 -88.7608 99° East 385 443 15,800 1,320 Climbing Minneapolis Center
07:57AM 44.6031 -88.6081 99° East 399 459 17,200 1,320 Climbing Minneapolis Center
07:58AM 44.5817 -88.4258 99° East 406 467 18,500 1,320 Climbing Minneapolis Center
07:59AM 44.5631 -88.2639 99° East 416 479 19,900 1,260 Climbing Minneapolis Center
08:00AM 44.5131 -88.1153 115° Southeast 420 483 21,100 960 Climbing Minneapolis Center
08:01AM 44.4433 -87.9775 125° Southeast 430 495 21,900 780 Climbing Minneapolis Center
08:02AM 44.3714 -87.8369 126° Southeast 439 505 22,800 1,020 Climbing Minneapolis Center
08:03AM 44.2981 -87.6956 126° Southeast 445 512 24,000 960 Climbing Minneapolis Center
08:04AM 44.2256 -87.5558 126° Southeast 444 511 24,800 480 Climbing Minneapolis Center
08:05AM 44.1508 -87.4117 126° Southeast 453 521 25,000 60 Climbing Minneapolis Center
08:06AM 44.0744 -87.2672 126° Southeast 458 527 25,000  Level Minneapolis Center
08:07AM 43.9944 -87.1172 127° Southeast 464 534 25,000  Level Minneapolis Center
08:08AM 43.9208 -86.9783 126° Southeast 452 520 25,000  Level Minneapolis Center
08:09AM 43.8644 -86.8714 126° Southeast 439 505 25,000  Level Minneapolis Center
08:10AM 43.7833 -86.7208 127° Southeast 409 471 25,000  Level Minneapolis Center
08:11AM 43.7189 -86.5997 126° Southeast 395 455 25,000  Level Minneapolis Center
08:12AM 43.6542 -86.4800 127° Southeast 389 448 25,000  Level Minneapolis Center
08:13AM 43.5739 -86.3311 127° Southeast 396 456 25,000  Level Minneapolis Center
08:14AM 43.5481 -86.2836 127° Southeast 400 460 25,000  Level Chicago Center
08:15AM 43.4786 -86.1578 127° Southeast 408 470 25,000  Level Chicago Center
08:16AM 43.4039 -86.0214 127° Southeast 432 497 25,000  Level Chicago Center
08:17AM 43.3606 -85.8506 109° East 468 539 25,000  Level Chicago Center
08:18AM 43.3286 -85.6692 104° East 479 551 25,000  Level Chicago Center
08:19AM 43.2964 -85.4881 104° East 485 558 25,000 -120 Level Chicago Center
08:20AM 43.2572 -85.2711 104° East 484 557 24,800 -720 Descending Chicago Center
08:20AM 43.2486 -85.2239 104° East 482 555 24,100 -1,440 Descending Cleveland Center
08:21AM 43.2175 -85.0592 104° East 471 542 23,000 -600 Descending Cleveland Center
08:22AM 43.1864 -84.8944 104° East 459 528 23,000  Level Cleveland Center
08:23AM 43.1939 -84.7411 86° East 421 484 23,000 -120 Level Cleveland Center
08:24AM 43.2036 -84.5908 85° East 402 463 22,800 -900 Descending Cleveland Center
08:25AM 43.2125 -84.4461 85° East 391 450 21,200 -1,560 Descending Cleveland Center
08:26AM 43.2214 -84.3042 85° East 381 438 19,700 -1,500 Descending Cleveland Center
08:27AM 43.1917 -84.1886 109° East 365 420 18,300 -1,260 Descending Cleveland Center
08:28AM 43.1558 -84.0667 112° Southeast 353 406 17,200 -1,320 Descending Cleveland Center
08:29AM 43.1156 -83.9478 115° Southeast 348 400 15,700 -1,560 Descending Cleveland Center
08:30AM 43.0361 -83.8867 151° Southeast 317 365 14,100 -1,500 Descending Cleveland Center
08:31AM 42.9525 -83.8228 151° Southeast 328 377 12,800 -1,380 Descending Cleveland Center
08:32AM 42.9011 -83.7889 154° Southeast 341 392 12,100 -840 Descending Cleveland Center
08:32AM 42.8706 -83.7647 150° Southeast 333 383 12,000 -120 Descending Cleveland Center
08:33AM 42.8194 -83.7281 152° Southeast 329 379 12,000 -540 Level Cleveland Center
08:33AM 42.7908 -83.7097 155° Southeast 333 383 11,500 -1,560 Descending Cleveland Center
08:34AM 42.7478 -83.6850 157° South 320 368 10,600 -1,620 Descending Cleveland Center
08:34AM 42.7108 -83.6633 157° South 327 376 9,900 -1,500 Descending Cleveland Center
08:35AM 42.6497 -83.6094 147° Southeast 305 351 8,700 -1,620 Descending Cleveland Center
08:36AM 42.6036 -83.5367 131° Southeast 295 339 7,400 -1,500 Descending Cleveland Center
08:36AM 42.5856 -83.5133 136° Southeast 299 344 6,900 -1,320 Descending Cleveland Center
08:37AM 42.5494 -83.4581 132° Southeast 276 318 6,100 -900 Descending Cleveland Center
08:37AM 42.5353 -83.4350 130° Southeast 284 327 6,000 -300 Descending Cleveland Center
08:38AM 42.4911 -83.3681 132° Southeast 270 311 5,800 -840 Descending Cleveland Center
08:39AM 42.4550 -83.3131 132° Southeast 261 300 4,700 -1,380 Descending Cleveland Center
08:39AM 42.4303 -83.2922 148° Southeast 265 305 4,200 -780 Descending Cleveland Center
08:40AM 42.3906 -83.2961 184° South 224 258 4,000 -480 Descending Cleveland Center
08:41AM 42.3344 -83.2967 180° South 160 184 3,400 -780 Descending Cleveland Center
08:42AM 42.2986 -83.3147 200° South 134 154 2,400 -1,020 Descending Cleveland Center